Flight Track Log - Related Links

Times and Time Zones

All times are in EDT time to prevent confusion due to time zone crossing. See the AWI3722 flight status page for this flight to view local times or setup timezone preferences in your user account.

Time Position Orientation Groundspeed Altitude Reporting Facility
EDT Latitude Longitude Course Direction KTS MPH feet Rate Location/Type
Fri 02:07:05 PM 39.8747 -75.2244 90° East 148 170 600  Level FAA TRACON SMA TRACON (SMA)
Fri 02:07:45 PM 39.8703 -75.1844 98° East 184 212 1,900 1,900 Climbing FAA TRACON SMA TRACON (SMA)
Fri 02:08:05 PM 39.8675 -75.1567 97° East 215 247 2,500 1,800 Climbing FAA TRACON SMA TRACON (SMA)
Fri 02:08:25 PM 39.8639 -75.1311 100° East 224 258 3,100 1,800 Climbing FAA TRACON SMA TRACON (SMA)
Fri 02:08:45 PM 39.8603 -75.1067 101° East 221 254 3,700 1,950 Climbing FAA TRACON SMA TRACON (SMA)
Fri 02:09:00 PM 39.8064 -74.8154 105° East  Level FlightAware Approximate
Fri 02:09:05 PM 39.8553 -75.0803 104° East 237 273 4,400  Level FAA TRACON SMA TRACON (SMA)
Fri 02:09:25 PM 39.8494 -75.0472 103° East 250 288 4,800 900 Climbing FAA TRACON SMA TRACON (SMA)
Fri 02:09:45 PM 39.8433 -75.0144 104° East 293 337 5,000 1,500 Climbing FAA TRACON SMA TRACON (SMA)
Fri 02:10:00 PM 39.7884 -74.6746 75° East  Level FlightAware Approximate
Fri 02:10:05 PM 39.8364 -74.9747 103° East 300 345 5,800  Level FAA TRACON SMA TRACON (SMA)
Fri 02:10:25 PM 39.8314 -74.9414 101° East 298 343 6,600 1,800 Climbing FAA TRACON SMA TRACON (SMA)
Fri 02:10:45 PM 39.8269 -74.9122 101° East 298 343 7,000 1,650 Climbing FAA TRACON SMA TRACON (SMA)
Fri 02:11:00 PM 39.8000 -74.5309 90° East  Level FlightAware Approximate
Fri 02:11:05 PM 39.8200 -74.8758 104° East 301 346 7,700  Level FAA TRACON SMA TRACON (SMA)
Fri 02:11:25 PM 39.8128 -74.8342 103° East 306 352 8,600 2,250 Climbing FAA TRACON SMA TRACON (SMA)
Fri 02:11:45 PM 39.8083 -74.8025 100° East 310 357 9,200 2,550 Climbing FAA TRACON SMA TRACON (SMA)
Fri 02:12:00 PM 39.8167 -74.3960 90° East  Level FlightAware Approximate
Fri 02:12:05 PM 39.8011 -74.7589 102° East 314 361 10,300  Level FAA TRACON SMA TRACON (SMA)
Fri 02:12:25 PM 39.7956 -74.7228 101° East 313 360 11,100 2,250 Climbing FAA TRACON SMA TRACON (SMA)
Fri 02:12:45 PM 39.7972 -74.6861 87° East 325 374 11,800 1,950 Climbing FAA TRACON SMA TRACON (SMA)
Fri 02:13:05 PM 39.7994 -74.6503 85° East 331 381 12,400 1,800 Climbing FAA TRACON SMA TRACON (SMA)
Fri 02:13:25 PM 39.8033 -74.6036 84° East 336 387 13,000 2,100 Climbing FAA TRACON SMA TRACON (SMA)
Fri 02:13:45 PM 39.8064 -74.5656 84° East 340 391 13,800 2,100 Climbing FAA TRACON SMA TRACON (SMA)
Fri 02:14:05 PM 39.8111 -74.5297 80° East 337 388 14,400 1,200 Climbing FAA TRACON SMA TRACON (SMA)
Fri 02:14:25 PM 39.8367 -74.4917 49° Northeast 361 415 14,600 1,050 Climbing FAA TRACON SMA TRACON (SMA)
Fri 02:14:45 PM 39.8636 -74.4706 31° Northeast 353 406 15,100 1,050 Climbing FAA TRACON SMA TRACON (SMA)
Fri 02:15:05 PM 39.8903 -74.4492 32° Northeast 367 422 15,300 750 Climbing FAA TRACON SMA TRACON (SMA)
Fri 02:15:25 PM 39.9236 -74.4228 31° Northeast 370 426 15,600 1,050 Climbing FAA TRACON SMA TRACON (SMA)
Fri 02:15:45 PM 39.9522 -74.4006 31° Northeast 378 435 16,000 900 Climbing FAA TRACON SMA TRACON (SMA)
Fri 02:16:05 PM 39.9831 -74.3758 32° Northeast 379 436 16,200 1,200 Climbing FAA TRACON SMA TRACON (SMA)
Fri 02:16:25 PM 40.0136 -74.3472 36° Northeast 383 441 16,800 700 Climbing FAA TRACON SMA TRACON (SMA)
Fri 02:17:05 PM 40.0267 -74.3336 39° Northeast 386 444 16,900 594 Climbing FAA TRACON SMA TRACON (SMA)
Fri 02:18:06 PM 40.1447 -74.2139 38° Northeast 390 449 17,800 1,373 Climbing New York Center
Fri 02:19:03 PM 40.2372 -74.1097 41° Northeast 395 455 19,600 1,304 Climbing New York Center
Fri 02:20:47 PM 40.3894 -73.9575 37° Northeast 418 481 21,300 920 Climbing Boston Center
Fri 02:21:46 PM 40.4783 -73.8589 40° Northeast 418 481 22,100 900 Climbing Boston Center
Fri 02:22:47 PM 40.5711 -73.7625 38° Northeast 423 487 23,100 934 Climbing Boston Center
Fri 02:23:48 PM 40.6556 -73.6656 41° Northeast 429 494 24,000 900 Climbing Boston Center
Fri 02:24:47 PM 40.7506 -73.5689 38° Northeast 434 499 24,900 850 Climbing Boston Center
Fri 02:25:48 PM 40.8431 -73.4633 41° Northeast 434 499 25,700 850 Climbing Boston Center
Fri 02:26:47 PM 40.9400 -73.3578 39° Northeast 439 505 26,600 992 Climbing Boston Center
Fri 02:27:49 PM 41.0450 -73.2547 36° Northeast 434 499 27,700 958 Climbing Boston Center
Fri 02:28:46 PM 41.1394 -73.1511 40° Northeast 434 499 28,500 661 Climbing Boston Center
Fri 02:29:47 PM 41.2111 -73.0222 54° Northeast 421 484 29,000 246 Climbing Boston Center
Fri 02:30:48 PM 41.2803 -72.8764 58° Northeast 440 506 29,000  Level Boston Center
Fri 02:31:46 PM 41.3475 -72.7275 59° Northeast 459 528 29,000  Level Boston Center
Fri 02:32:47 PM 41.4061 -72.5978 59° Northeast 464 534 29,000  Level Boston Center
Fri 02:33:47 PM 41.4750 -72.4511 58° Northeast 464 534 29,000  Level Boston Center
Fri 02:34:46 PM 41.5481 -72.2958 58° Northeast 455 524 29,000  Level Boston Center
Fri 02:35:46 PM 41.6144 -72.1486 59° Northeast 455 524 29,000  Level Boston Center
Fri 02:36:47 PM 41.6867 -72.0008 57° Northeast 455 524 29,000  Level Boston Center
Fri 02:37:47 PM 41.7694 -71.8667 50° Northeast 455 524 29,000 -200 Level Boston Center
Fri 02:38:47 PM 41.8522 -71.7350 50° Northeast 465 535 28,600 -694 Descending Boston Center
Fri 02:39:48 PM 41.9325 -71.6056 50° Northeast 483 556 27,600 -992 Descending Boston Center
Fri 02:40:48 PM 42.0253 -71.4647 48° Northeast 483 556 26,600 -1,017 Descending Boston Center
Fri 02:41:46 PM 42.1094 -71.3208 52° Northeast 488 562 25,600 -1,008 Descending Boston Center
Fri 02:42:47 PM 42.1975 -71.1789 50° Northeast 488 562 24,600 -800 Descending Boston Center
Fri 02:43:46 PM 42.2833 -71.0342 51° Northeast 483 556 24,000 -300 Descending Boston Center
Fri 02:44:47 PM 42.3689 -70.8917 51° Northeast 483 556 24,000  Level Boston Center
Fri 02:45:48 PM 42.4631 -70.7628 45° Northeast 483 556 24,000  Level Boston Center
Fri 02:46:46 PM 42.5911 -70.6886 23° Northeast 478 550 24,000 -1,462 Level Boston Center
Fri 02:47:47 PM 42.7172 -70.6203 22° Northeast 478 550 21,100 -2,926 Descending Boston Center
Fri 02:48:47 PM 42.8306 -70.5461 26° Northeast 461 531 18,100 -2,975 Descending Boston Center
Fri 02:49:48 PM 42.9564 -70.4683 24° Northeast 449 517 15,100 -2,628 Descending Boston Center
Fri 02:50:48 PM 43.0492 -70.4000 28° Northeast 430 495 12,800 -2,067 Descending Boston Center
Fri 02:51:47 PM 43.1456 -70.3228 30° Northeast 408 470 11,000 -1,462 Descending Boston Center
Fri 02:52:47 PM 43.2400 -70.3481 349° North 330 380 9,900 -1,041 Descending Boston Center
Fri 02:53:48 PM 43.3053 -70.3944 333° Northwest 296 341 8,900 -1,131 Descending Boston Center
Fri 02:54:49 PM 43.3731 -70.4464 331° Northwest 282 325 7,600 -1,780 Descending Boston Center
Fri 02:55:46 PM 43.4489 -70.4983 334° Northwest 293 337 5,400 -2,050 Descending Boston Center
Fri 02:56:49 PM 43.5289 -70.5528 334° Northwest 288 331 3,500 -1,450 Descending Boston Center
Fri 02:57:46 PM 43.5919 -70.5825 341° North 276 318 2,500 -504 Descending Boston Center
Fri 02:58:48 PM 43.6567 -70.5833 359° North 209 241 2,500  Level Boston Center
Fri 02:59:48 PM 43.6619 -70.5286 82° East 137 158 2,500  Level Boston Center

Login

Don't have an account? Register now (free) for customized features, flight alerts, and more!